sensor_id;sensor_type;location;lat;lon;timestamp;P1;durP1;ratioP1;P2;durP2;ratioP2
73670;SDS011;61968;48.178;11.566;2024-03-02T00:03:02;5.07;;;3.50;;
73670;SDS011;61968;48.178;11.566;2024-03-02T00:05:29;6.53;;;3.28;;
73670;SDS011;61968;48.178;11.566;2024-03-02T00:07:59;3.58;;;2.78;;
73670;SDS011;61968;48.178;11.566;2024-03-02T00:10:25;5.18;;;3.35;;
73670;SDS011;61968;48.178;11.566;2024-03-02T00:12:54;6.32;;;3.67;;
73670;SDS011;61968;48.178;11.566;2024-03-02T00:15:41;6.15;;;3.65;;
73670;SDS011;61968;48.178;11.566;2024-03-02T00:18:09;5.25;;;3.25;;
73670;SDS011;61968;48.178;11.566;2024-03-02T00:20:37;4.90;;;3.28;;
73670;SDS011;61968;48.178;11.566;2024-03-02T00:23:06;5.70;;;3.70;;
73670;SDS011;61968;48.178;11.566;2024-03-02T00:25:37;6.72;;;4.10;;
73670;SDS011;61968;48.178;11.566;2024-03-02T00:28:05;5.65;;;3.75;;
73670;SDS011;61968;48.178;11.566;2024-03-02T00:30:50;6.07;;;3.88;;
73670;SDS011;61968;48.178;11.566;2024-03-02T00:33:20;7.65;;;3.95;;
73670;SDS011;61968;48.178;11.566;2024-03-02T00:35:48;5.97;;;3.60;;
73670;SDS011;61968;48.178;11.566;2024-03-02T00:38:17;6.40;;;3.75;;
73670;SDS011;61968;48.178;11.566;2024-03-02T00:40:44;6.60;;;3.58;;
73670;SDS011;61968;48.178;11.566;2024-03-02T00:43:23;4.57;;;3.53;;
73670;SDS011;61968;48.178;11.566;2024-03-02T00:46:10;4.70;;;3.83;;
73670;SDS011;61968;48.178;11.566;2024-03-02T00:48:37;4.18;;;3.42;;
73670;SDS011;61968;48.178;11.566;2024-03-02T00:51:04;5.45;;;3.60;;
73670;SDS011;61968;48.178;11.566;2024-03-02T00:53:32;5.32;;;3.80;;
73670;SDS011;61968;48.178;11.566;2024-03-02T00:55:59;5.90;;;4.00;;
73670;SDS011;61968;48.178;11.566;2024-03-02T00:58:27;6.43;;;3.97;;
73670;SDS011;61968;48.178;11.566;2024-03-02T01:03:20;4.43;;;3.17;;
73670;SDS011;61968;48.178;11.566;2024-03-02T01:05:47;4.60;;;3.70;;
73670;SDS011;61968;48.178;11.566;2024-03-02T01:10:41;7.55;;;3.53;;
73670;SDS011;61968;48.178;11.566;2024-03-02T01:13:08;6.15;;;3.47;;
73670;SDS011;61968;48.178;11.566;2024-03-02T01:15:35;5.10;;;4.05;;
73670;SDS011;61968;48.178;11.566;2024-03-02T01:18:01;7.40;;;3.92;;
73670;SDS011;61968;48.178;11.566;2024-03-02T01:20:28;5.65;;;3.72;;
73670;SDS011;61968;48.178;11.566;2024-03-02T01:25:20;5.95;;;4.13;;
73670;SDS011;61968;48.178;11.566;2024-03-02T01:27:48;6.80;;;3.47;;
73670;SDS011;61968;48.178;11.566;2024-03-02T01:30:15;5.80;;;4.05;;
73670;SDS011;61968;48.178;11.566;2024-03-02T01:32:41;5.13;;;3.83;;
73670;SDS011;61968;48.178;11.566;2024-03-02T01:35:08;6.55;;;3.40;;
73670;SDS011;61968;48.178;11.566;2024-03-02T01:40:01;7.30;;;3.75;;
73670;SDS011;61968;48.178;11.566;2024-03-02T01:45:01;5.88;;;3.80;;
73670;SDS011;61968;48.178;11.566;2024-03-02T01:47:28;7.18;;;3.80;;
73670;SDS011;61968;48.178;11.566;2024-03-02T01:52:21;4.97;;;3.67;;
73670;SDS011;61968;48.178;11.566;2024-03-02T01:54:47;5.53;;;3.72;;
73670;SDS011;61968;48.178;11.566;2024-03-02T01:57:14;5.32;;;3.47;;
73670;SDS011;61968;48.178;11.566;2024-03-02T02:02:08;3.90;;;3.22;;
73670;SDS011;61968;48.178;11.566;2024-03-02T02:04:35;8.75;;;3.72;;
73670;SDS011;61968;48.178;11.566;2024-03-02T02:09:27;5.05;;;3.47;;
73670;SDS011;61968;48.178;11.566;2024-03-02T02:14:20;5.57;;;3.72;;
73670;SDS011;61968;48.178;11.566;2024-03-02T02:19:15;5.30;;;3.28;;
73670;SDS011;61968;48.178;11.566;2024-03-02T02:21:43;4.15;;;3.67;;
73670;SDS011;61968;48.178;11.566;2024-03-02T02:24:09;6.95;;;4.13;;
73670;SDS011;61968;48.178;11.566;2024-03-02T02:26:38;4.80;;;3.67;;
73670;SDS011;61968;48.178;11.566;2024-03-02T02:29:05;4.80;;;3.45;;
73670;SDS011;61968;48.178;11.566;2024-03-02T02:31:36;6.25;;;3.88;;
73670;SDS011;61968;48.178;11.566;2024-03-02T02:34:03;7.22;;;4.95;;
73670;SDS011;61968;48.178;11.566;2024-03-02T02:38:58;5.55;;;3.60;;
73670;SDS011;61968;48.178;11.566;2024-03-02T02:41:28;6.03;;;3.55;;
73670;SDS011;61968;48.178;11.566;2024-03-02T02:46:21;4.47;;;3.28;;
73670;SDS011;61968;48.178;11.566;2024-03-02T02:51:14;4.53;;;2.88;;
73670;SDS011;61968;48.178;11.566;2024-03-02T02:53:41;4.97;;;3.78;;
73670;SDS011;61968;48.178;11.566;2024-03-02T02:58:35;7.40;;;3.60;;
73670;SDS011;61968;48.178;11.566;2024-03-02T03:03:28;6.60;;;3.10;;
73670;SDS011;61968;48.178;11.566;2024-03-02T03:08:21;5.05;;;3.45;;
73670;SDS011;61968;48.178;11.566;2024-03-02T03:10:49;5.28;;;3.53;;
73670;SDS011;61968;48.178;11.566;2024-03-02T03:15:43;4.32;;;3.78;;
73670;SDS011;61968;48.178;11.566;2024-03-02T03:18:10;4.47;;;3.25;;
73670;SDS011;61968;48.178;11.566;2024-03-02T03:23:03;4.40;;;2.63;;
73670;SDS011;61968;48.178;11.566;2024-03-02T03:25:30;5.35;;;3.75;;
73670;SDS011;61968;48.178;11.566;2024-03-02T03:30:24;4.07;;;3.28;;
73670;SDS011;61968;48.178;11.566;2024-03-02T03:32:50;3.90;;;3.22;;
73670;SDS011;61968;48.178;11.566;2024-03-02T03:37:43;5.93;;;3.88;;
73670;SDS011;61968;48.178;11.566;2024-03-02T03:42:36;4.43;;;3.05;;
73670;SDS011;61968;48.178;11.566;2024-03-02T03:45:04;6.43;;;3.25;;
73670;SDS011;61968;48.178;11.566;2024-03-02T03:47:32;4.00;;;3.13;;
73670;SDS011;61968;48.178;11.566;2024-03-02T03:49:59;5.45;;;3.60;;
73670;SDS011;61968;48.178;11.566;2024-03-02T03:52:25;5.05;;;3.63;;
73670;SDS011;61968;48.178;11.566;2024-03-02T03:54:52;4.25;;;3.40;;
73670;SDS011;61968;48.178;11.566;2024-03-02T03:57:18;6.47;;;4.22;;
73670;SDS011;61968;48.178;11.566;2024-03-02T04:02:11;3.97;;;3.45;;
73670;SDS011;61968;48.178;11.566;2024-03-02T04:04:40;5.80;;;3.88;;
73670;SDS011;61968;48.178;11.566;2024-03-02T04:07:07;7.00;;;4.07;;
73670;SDS011;61968;48.178;11.566;2024-03-02T04:09:33;6.30;;;3.72;;
73670;SDS011;61968;48.178;11.566;2024-03-02T04:14:26;5.32;;;3.83;;
73670;SDS011;61968;48.178;11.566;2024-03-02T04:16:52;4.15;;;3.75;;
73670;SDS011;61968;48.178;11.566;2024-03-02T04:21:46;5.53;;;3.40;;
73670;SDS011;61968;48.178;11.566;2024-03-02T04:24:13;5.25;;;4.00;;
73670;SDS011;61968;48.178;11.566;2024-03-02T04:29:06;5.60;;;3.65;;
73670;SDS011;61968;48.178;11.566;2024-03-02T04:31:32;5.65;;;3.63;;
73670;SDS011;61968;48.178;11.566;2024-03-02T04:33:59;4.38;;;3.97;;
73670;SDS011;61968;48.178;11.566;2024-03-02T04:38:53;6.13;;;3.95;;
73670;SDS011;61968;48.178;11.566;2024-03-02T04:41:19;7.95;;;4.90;;
73670;SDS011;61968;48.178;11.566;2024-03-02T04:46:12;7.85;;;4.65;;
73670;SDS011;61968;48.178;11.566;2024-03-02T04:51:05;6.30;;;4.32;;
73670;SDS011;61968;48.178;11.566;2024-03-02T04:53:30;7.95;;;4.55;;
73670;SDS011;61968;48.178;11.566;2024-03-02T04:58:45;7.43;;;4.10;;
73670;SDS011;61968;48.178;11.566;2024-03-02T05:03:38;7.40;;;4.40;;
73670;SDS011;61968;48.178;11.566;2024-03-02T05:08:31;8.25;;;4.60;;
73670;SDS011;61968;48.178;11.566;2024-03-02T05:11:01;6.85;;;4.38;;
73670;SDS011;61968;48.178;11.566;2024-03-02T05:13:42;5.60;;;4.60;;
73670;SDS011;61968;48.178;11.566;2024-03-02T05:18:35;6.40;;;4.88;;
73670;SDS011;61968;48.178;11.566;2024-03-02T05:21:03;7.53;;;5.53;;
73670;SDS011;61968;48.178;11.566;2024-03-02T05:23:30;8.05;;;4.25;;
73670;SDS011;61968;48.178;11.566;2024-03-02T05:25:57;7.32;;;4.55;;
73670;SDS011;61968;48.178;11.566;2024-03-02T05:30:51;9.63;;;4.30;;
73670;SDS011;61968;48.178;11.566;2024-03-02T05:35:44;9.05;;;5.20;;
73670;SDS011;61968;48.178;11.566;2024-03-02T05:40:37;8.80;;;5.22;;
73670;SDS011;61968;48.178;11.566;2024-03-02T05:45:31;7.88;;;4.95;;
73670;SDS011;61968;48.178;11.566;2024-03-02T05:47:57;8.02;;;5.13;;
73670;SDS011;61968;48.178;11.566;2024-03-02T05:52:50;8.43;;;4.93;;
73670;SDS011;61968;48.178;11.566;2024-03-02T05:55:17;7.10;;;4.90;;
73670;SDS011;61968;48.178;11.566;2024-03-02T06:00:24;7.40;;;4.60;;
73670;SDS011;61968;48.178;11.566;2024-03-02T06:05:18;8.02;;;4.57;;
73670;SDS011;61968;48.178;11.566;2024-03-02T06:10:10;6.95;;;4.45;;
73670;SDS011;61968;48.178;11.566;2024-03-02T06:15:03;8.98;;;5.25;;
73670;SDS011;61968;48.178;11.566;2024-03-02T06:17:30;7.53;;;4.85;;
73670;SDS011;61968;48.178;11.566;2024-03-02T06:22:24;7.05;;;4.47;;
73670;SDS011;61968;48.178;11.566;2024-03-02T06:27:17;8.23;;;4.72;;
73670;SDS011;61968;48.178;11.566;2024-03-02T06:32:10;7.40;;;4.75;;
73670;SDS011;61968;48.178;11.566;2024-03-02T06:37:04;7.20;;;4.80;;
73670;SDS011;61968;48.178;11.566;2024-03-02T06:39:31;8.98;;;5.07;;
73670;SDS011;61968;48.178;11.566;2024-03-02T06:41:59;7.90;;;4.97;;
73670;SDS011;61968;48.178;11.566;2024-03-02T06:50:13;8.32;;;5.25;;
73670;SDS011;61968;48.178;11.566;2024-03-02T06:52:41;8.35;;;5.13;;
73670;SDS011;61968;48.178;11.566;2024-03-02T06:55:08;7.22;;;5.15;;
73670;SDS011;61968;48.178;11.566;2024-03-02T06:57:35;10.60;;;5.40;;
73670;SDS011;61968;48.178;11.566;2024-03-02T07:02:30;7.03;;;4.60;;
73670;SDS011;61968;48.178;11.566;2024-03-02T07:04:57;8.00;;;4.75;;
73670;SDS011;61968;48.178;11.566;2024-03-02T07:07:24;9.93;;;5.40;;
73670;SDS011;61968;48.178;11.566;2024-03-02T07:09:52;9.25;;;5.30;;
73670;SDS011;61968;48.178;11.566;2024-03-02T07:12:18;8.05;;;5.20;;
73670;SDS011;61968;48.178;11.566;2024-03-02T07:14:44;7.75;;;4.80;;
73670;SDS011;61968;48.178;11.566;2024-03-02T07:17:28;8.13;;;5.18;;
73670;SDS011;61968;48.178;11.566;2024-03-02T07:19:55;9.35;;;5.30;;
73670;SDS011;61968;48.178;11.566;2024-03-02T07:24:48;8.45;;;5.80;;
73670;SDS011;61968;48.178;11.566;2024-03-02T07:27:16;10.20;;;5.80;;
73670;SDS011;61968;48.178;11.566;2024-03-02T07:29:44;9.65;;;5.78;;
73670;SDS011;61968;48.178;11.566;2024-03-02T07:34:36;8.18;;;5.13;;
73670;SDS011;61968;48.178;11.566;2024-03-02T07:37:03;8.50;;;4.85;;
73670;SDS011;61968;48.178;11.566;2024-03-02T07:39:30;11.77;;;6.30;;
73670;SDS011;61968;48.178;11.566;2024-03-02T07:41:57;10.40;;;7.03;;
73670;SDS011;61968;48.178;11.566;2024-03-02T07:44:25;9.90;;;6.20;;
73670;SDS011;61968;48.178;11.566;2024-03-02T07:46:51;13.40;;;6.57;;
73670;SDS011;61968;48.178;11.566;2024-03-02T07:51:45;8.82;;;6.03;;
73670;SDS011;61968;48.178;11.566;2024-03-02T07:56:37;10.05;;;5.38;;
73670;SDS011;61968;48.178;11.566;2024-03-02T07:59:04;10.95;;;6.53;;
73670;SDS011;61968;48.178;11.566;2024-03-02T08:01:33;15.00;;;7.28;;
73670;SDS011;61968;48.178;11.566;2024-03-02T08:04:00;9.25;;;5.78;;
73670;SDS011;61968;48.178;11.566;2024-03-02T08:06:28;8.70;;;5.78;;
73670;SDS011;61968;48.178;11.566;2024-03-02T08:08:55;13.20;;;7.65;;
73670;SDS011;61968;48.178;11.566;2024-03-02T08:11:23;13.88;;;7.55;;
73670;SDS011;61968;48.178;11.566;2024-03-02T08:13:49;14.25;;;6.78;;
73670;SDS011;61968;48.178;11.566;2024-03-02T08:16:16;11.98;;;5.93;;
73670;SDS011;61968;48.178;11.566;2024-03-02T08:18:46;15.00;;;7.85;;
73670;SDS011;61968;48.178;11.566;2024-03-02T08:21:12;11.68;;;6.90;;
73670;SDS011;61968;48.178;11.566;2024-03-02T08:23:39;12.48;;;6.20;;
73670;SDS011;61968;48.178;11.566;2024-03-02T08:26:07;18.95;;;8.32;;
73670;SDS011;61968;48.178;11.566;2024-03-02T08:28:34;12.52;;;6.30;;
73670;SDS011;61968;48.178;11.566;2024-03-02T08:31:02;14.98;;;6.38;;
73670;SDS011;61968;48.178;11.566;2024-03-02T08:33:28;8.32;;;5.50;;
73670;SDS011;61968;48.178;11.566;2024-03-02T08:35:56;8.15;;;4.88;;
73670;SDS011;61968;48.178;11.566;2024-03-02T08:38:23;13.20;;;5.38;;
73670;SDS011;61968;48.178;11.566;2024-03-02T08:40:49;8.00;;;4.28;;
73670;SDS011;61968;48.178;11.566;2024-03-02T08:43:16;14.93;;;5.55;;
73670;SDS011;61968;48.178;11.566;2024-03-02T08:45:43;8.00;;;4.82;;
73670;SDS011;61968;48.178;11.566;2024-03-02T08:48:12;12.18;;;5.65;;
73670;SDS011;61968;48.178;11.566;2024-03-02T08:50:38;14.55;;;6.30;;
73670;SDS011;61968;48.178;11.566;2024-03-02T08:53:06;11.07;;;5.68;;
73670;SDS011;61968;48.178;11.566;2024-03-02T08:55:33;10.85;;;6.35;;
73670;SDS011;61968;48.178;11.566;2024-03-02T08:57:59;9.75;;;6.32;;
73670;SDS011;61968;48.178;11.566;2024-03-02T09:00:26;11.18;;;7.35;;
73670;SDS011;61968;48.178;11.566;2024-03-02T09:02:52;8.90;;;5.97;;
73670;SDS011;61968;48.178;11.566;2024-03-02T09:05:19;13.57;;;7.80;;
73670;SDS011;61968;48.178;11.566;2024-03-02T09:07:45;11.40;;;6.20;;
73670;SDS011;61968;48.178;11.566;2024-03-02T09:10:13;12.15;;;7.03;;
73670;SDS011;61968;48.178;11.566;2024-03-02T09:12:39;14.07;;;7.10;;
73670;SDS011;61968;48.178;11.566;2024-03-02T09:15:09;9.60;;;6.15;;
73670;SDS011;61968;48.178;11.566;2024-03-02T09:17:36;15.07;;;7.35;;
73670;SDS011;61968;48.178;11.566;2024-03-02T09:22:29;11.90;;;6.78;;
73670;SDS011;61968;48.178;11.566;2024-03-02T09:24:57;11.90;;;6.25;;
73670;SDS011;61968;48.178;11.566;2024-03-02T09:27:25;13.32;;;6.93;;
73670;SDS011;61968;48.178;11.566;2024-03-02T09:29:54;11.70;;;7.13;;
73670;SDS011;61968;48.178;11.566;2024-03-02T09:32:21;11.15;;;6.68;;
73670;SDS011;61968;48.178;11.566;2024-03-02T09:34:48;12.60;;;7.53;;
73670;SDS011;61968;48.178;11.566;2024-03-02T09:37:15;15.23;;;7.78;;
73670;SDS011;61968;48.178;11.566;2024-03-02T09:39:43;14.23;;;8.80;;
73670;SDS011;61968;48.178;11.566;2024-03-02T09:42:10;12.20;;;7.00;;
73670;SDS011;61968;48.178;11.566;2024-03-02T09:44:38;16.85;;;6.97;;
73670;SDS011;61968;48.178;11.566;2024-03-02T09:47:06;11.90;;;7.57;;
73670;SDS011;61968;48.178;11.566;2024-03-02T09:49:33;14.10;;;7.55;;
73670;SDS011;61968;48.178;11.566;2024-03-02T09:52:00;14.50;;;6.95;;
73670;SDS011;61968;48.178;11.566;2024-03-02T09:54:29;12.60;;;7.00;;
73670;SDS011;61968;48.178;11.566;2024-03-02T09:56:55;12.52;;;6.15;;
73670;SDS011;61968;48.178;11.566;2024-03-02T09:59:21;7.35;;;4.93;;
73670;SDS011;61968;48.178;11.566;2024-03-02T10:01:59;11.23;;;5.72;;
73670;SDS011;61968;48.178;11.566;2024-03-02T10:04:27;19.83;;;5.90;;
73670;SDS011;61968;48.178;11.566;2024-03-02T10:07:09;10.98;;;6.60;;
73670;SDS011;61968;48.178;11.566;2024-03-02T10:09:37;12.85;;;6.57;;
73670;SDS011;61968;48.178;11.566;2024-03-02T10:12:04;13.45;;;6.30;;
73670;SDS011;61968;48.178;11.566;2024-03-02T10:14:31;24.33;;;12.25;;
73670;SDS011;61968;48.178;11.566;2024-03-02T10:17:02;11.25;;;6.63;;
73670;SDS011;61968;48.178;11.566;2024-03-02T10:19:30;12.07;;;5.75;;
73670;SDS011;61968;48.178;11.566;2024-03-02T10:22:02;12.55;;;6.03;;
73670;SDS011;61968;48.178;11.566;2024-03-02T10:24:35;21.73;;;10.77;;
73670;SDS011;61968;48.178;11.566;2024-03-02T10:27:06;11.35;;;6.25;;
73670;SDS011;61968;48.178;11.566;2024-03-02T10:29:34;16.77;;;8.98;;
73670;SDS011;61968;48.178;11.566;2024-03-02T10:32:04;10.38;;;6.22;;
73670;SDS011;61968;48.178;11.566;2024-03-02T10:34:32;13.98;;;6.65;;
73670;SDS011;61968;48.178;11.566;2024-03-02T10:36:59;15.90;;;7.20;;
73670;SDS011;61968;48.178;11.566;2024-03-02T10:39:26;8.82;;;5.60;;
73670;SDS011;61968;48.178;11.566;2024-03-02T10:41:52;15.23;;;6.53;;
73670;SDS011;61968;48.178;11.566;2024-03-02T10:44:21;18.08;;;7.80;;
73670;SDS011;61968;48.178;11.566;2024-03-02T10:46:49;14.15;;;6.32;;
73670;SDS011;61968;48.178;11.566;2024-03-02T10:49:17;12.68;;;7.30;;
73670;SDS011;61968;48.178;11.566;2024-03-02T10:51:45;20.00;;;8.00;;
73670;SDS011;61968;48.178;11.566;2024-03-02T10:54:11;14.82;;;6.65;;
73670;SDS011;61968;48.178;11.566;2024-03-02T10:56:39;13.80;;;7.05;;
73670;SDS011;61968;48.178;11.566;2024-03-02T10:59:09;12.30;;;5.30;;
73670;SDS011;61968;48.178;11.566;2024-03-02T11:01:42;10.27;;;5.70;;
73670;SDS011;61968;48.178;11.566;2024-03-02T11:04:11;14.77;;;6.75;;
73670;SDS011;61968;48.178;11.566;2024-03-02T11:06:43;12.27;;;5.97;;
73670;SDS011;61968;48.178;11.566;2024-03-02T11:09:14;13.50;;;5.65;;
73670;SDS011;61968;48.178;11.566;2024-03-02T11:11:44;17.83;;;7.85;;
73670;SDS011;61968;48.178;11.566;2024-03-02T11:14:16;15.57;;;7.32;;
73670;SDS011;61968;48.178;11.566;2024-03-02T11:16:47;16.17;;;6.22;;
73670;SDS011;61968;48.178;11.566;2024-03-02T11:19:14;12.02;;;5.10;;
73670;SDS011;61968;48.178;11.566;2024-03-02T11:21:43;14.57;;;6.38;;
73670;SDS011;61968;48.178;11.566;2024-03-02T11:24:30;10.25;;;5.38;;
73670;SDS011;61968;48.178;11.566;2024-03-02T11:26:59;12.95;;;6.07;;
73670;SDS011;61968;48.178;11.566;2024-03-02T11:29:43;17.73;;;9.75;;
73670;SDS011;61968;48.178;11.566;2024-03-02T11:32:18;19.85;;;8.00;;
73670;SDS011;61968;48.178;11.566;2024-03-02T11:34:48;19.55;;;8.77;;
73670;SDS011;61968;48.178;11.566;2024-03-02T11:37:17;23.75;;;11.05;;
73670;SDS011;61968;48.178;11.566;2024-03-02T11:39:46;15.70;;;8.48;;
73670;SDS011;61968;48.178;11.566;2024-03-02T11:42:15;21.67;;;10.85;;
73670;SDS011;61968;48.178;11.566;2024-03-02T11:44:42;20.80;;;9.93;;
73670;SDS011;61968;48.178;11.566;2024-03-02T11:47:12;18.67;;;8.98;;
73670;SDS011;61968;48.178;11.566;2024-03-02T11:49:43;17.13;;;8.55;;
73670;SDS011;61968;48.178;11.566;2024-03-02T11:52:11;19.15;;;9.60;;
73670;SDS011;61968;48.178;11.566;2024-03-02T11:54:41;18.35;;;7.95;;
73670;SDS011;61968;48.178;11.566;2024-03-02T11:57:12;16.38;;;8.95;;
73670;SDS011;61968;48.178;11.566;2024-03-02T11:59:39;21.35;;;10.90;;
73670;SDS011;61968;48.178;11.566;2024-03-02T12:02:06;19.42;;;10.13;;
73670;SDS011;61968;48.178;11.566;2024-03-02T12:04:39;23.05;;;10.20;;
73670;SDS011;61968;48.178;11.566;2024-03-02T12:07:06;21.00;;;9.93;;
73670;SDS011;61968;48.178;11.566;2024-03-02T12:09:32;18.35;;;9.00;;
73670;SDS011;61968;48.178;11.566;2024-03-02T12:12:04;20.52;;;9.93;;
73670;SDS011;61968;48.178;11.566;2024-03-02T12:14:31;17.85;;;8.43;;
73670;SDS011;61968;48.178;11.566;2024-03-02T12:16:58;16.33;;;8.63;;
73670;SDS011;61968;48.178;11.566;2024-03-02T12:19:25;14.40;;;8.27;;
73670;SDS011;61968;48.178;11.566;2024-03-02T12:21:54;17.40;;;8.70;;
73670;SDS011;61968;48.178;11.566;2024-03-02T12:24:22;23.10;;;9.13;;
73670;SDS011;61968;48.178;11.566;2024-03-02T12:26:49;21.42;;;8.77;;
73670;SDS011;61968;48.178;11.566;2024-03-02T12:29:17;15.48;;;7.82;;
73670;SDS011;61968;48.178;11.566;2024-03-02T12:31:45;17.25;;;8.68;;
73670;SDS011;61968;48.178;11.566;2024-03-02T12:34:12;18.40;;;8.38;;
73670;SDS011;61968;48.178;11.566;2024-03-02T12:36:39;18.02;;;8.13;;
73670;SDS011;61968;48.178;11.566;2024-03-02T12:39:06;14.77;;;7.72;;
73670;SDS011;61968;48.178;11.566;2024-03-02T12:41:35;17.02;;;8.27;;
73670;SDS011;61968;48.178;11.566;2024-03-02T12:44:02;22.48;;;9.07;;
73670;SDS011;61968;48.178;11.566;2024-03-02T12:46:30;12.80;;;8.32;;
73670;SDS011;61968;48.178;11.566;2024-03-02T12:49:04;18.67;;;9.48;;
73670;SDS011;61968;48.178;11.566;2024-03-02T12:51:34;16.02;;;8.60;;
73670;SDS011;61968;48.178;11.566;2024-03-02T12:54:01;29.85;;;12.05;;
73670;SDS011;61968;48.178;11.566;2024-03-02T12:56:30;16.90;;;7.88;;
73670;SDS011;61968;48.178;11.566;2024-03-02T12:58:57;18.75;;;8.27;;
73670;SDS011;61968;48.178;11.566;2024-03-02T13:01:24;16.08;;;8.50;;
73670;SDS011;61968;48.178;11.566;2024-03-02T13:03:53;14.85;;;7.60;;
73670;SDS011;61968;48.178;11.566;2024-03-02T13:06:21;18.98;;;9.57;;
73670;SDS011;61968;48.178;11.566;2024-03-02T13:08:48;19.40;;;8.15;;
73670;SDS011;61968;48.178;11.566;2024-03-02T13:11:15;24.42;;;9.30;;
73670;SDS011;61968;48.178;11.566;2024-03-02T13:13:42;19.00;;;10.18;;
73670;SDS011;61968;48.178;11.566;2024-03-02T13:16:09;15.52;;;8.18;;
73670;SDS011;61968;48.178;11.566;2024-03-02T13:18:36;13.65;;;8.20;;
73670;SDS011;61968;48.178;11.566;2024-03-02T13:21:04;16.40;;;9.43;;
73670;SDS011;61968;48.178;11.566;2024-03-02T13:23:30;23.40;;;10.70;;
73670;SDS011;61968;48.178;11.566;2024-03-02T13:25:57;16.85;;;9.93;;
73670;SDS011;61968;48.178;11.566;2024-03-02T13:28:24;19.80;;;8.43;;
73670;SDS011;61968;48.178;11.566;2024-03-02T13:30:50;14.13;;;8.60;;
73670;SDS011;61968;48.178;11.566;2024-03-02T13:33:17;13.05;;;7.88;;
73670;SDS011;61968;48.178;11.566;2024-03-02T13:35:47;13.27;;;8.30;;
73670;SDS011;61968;48.178;11.566;2024-03-02T13:38:16;15.77;;;8.38;;
73670;SDS011;61968;48.178;11.566;2024-03-02T13:40:42;15.43;;;8.00;;
73670;SDS011;61968;48.178;11.566;2024-03-02T13:43:09;14.65;;;7.88;;
73670;SDS011;61968;48.178;11.566;2024-03-02T13:45:35;15.15;;;8.82;;
73670;SDS011;61968;48.178;11.566;2024-03-02T13:48:02;21.20;;;9.98;;
73670;SDS011;61968;48.178;11.566;2024-03-02T13:50:29;22.00;;;9.13;;
73670;SDS011;61968;48.178;11.566;2024-03-02T13:52:56;20.23;;;10.05;;
73670;SDS011;61968;48.178;11.566;2024-03-02T13:55:24;21.35;;;9.43;;
73670;SDS011;61968;48.178;11.566;2024-03-02T13:57:50;20.00;;;9.25;;
73670;SDS011;61968;48.178;11.566;2024-03-02T14:00:17;21.42;;;9.57;;
73670;SDS011;61968;48.178;11.566;2024-03-02T14:02:45;16.08;;;9.35;;
73670;SDS011;61968;48.178;11.566;2024-03-02T14:05:11;22.95;;;8.77;;
73670;SDS011;61968;48.178;11.566;2024-03-02T14:07:39;29.42;;;11.93;;
73670;SDS011;61968;48.178;11.566;2024-03-02T14:10:05;16.48;;;7.93;;
73670;SDS011;61968;48.178;11.566;2024-03-02T14:12:33;14.48;;;7.03;;
73670;SDS011;61968;48.178;11.566;2024-03-02T14:15:00;14.48;;;7.63;;
73670;SDS011;61968;48.178;11.566;2024-03-02T14:17:27;18.23;;;8.07;;
73670;SDS011;61968;48.178;11.566;2024-03-02T14:19:54;16.92;;;9.55;;
73670;SDS011;61968;48.178;11.566;2024-03-02T14:22:20;13.02;;;7.65;;
73670;SDS011;61968;48.178;11.566;2024-03-02T14:24:47;18.58;;;8.57;;
73670;SDS011;61968;48.178;11.566;2024-03-02T14:27:14;20.17;;;9.32;;
73670;SDS011;61968;48.178;11.566;2024-03-02T14:29:42;14.57;;;7.95;;
73670;SDS011;61968;48.178;11.566;2024-03-02T14:32:09;18.63;;;9.55;;
73670;SDS011;61968;48.178;11.566;2024-03-02T14:34:35;13.10;;;7.68;;
73670;SDS011;61968;48.178;11.566;2024-03-02T14:37:03;16.40;;;6.53;;
73670;SDS011;61968;48.178;11.566;2024-03-02T14:39:30;14.75;;;8.05;;
73670;SDS011;61968;48.178;11.566;2024-03-02T14:41:59;15.30;;;7.47;;
73670;SDS011;61968;48.178;11.566;2024-03-02T14:44:26;18.88;;;10.00;;
73670;SDS011;61968;48.178;11.566;2024-03-02T14:46:54;27.73;;;13.32;;
73670;SDS011;61968;48.178;11.566;2024-03-02T14:49:20;15.13;;;8.00;;
73670;SDS011;61968;48.178;11.566;2024-03-02T14:51:47;16.60;;;8.00;;
73670;SDS011;61968;48.178;11.566;2024-03-02T14:54:14;16.88;;;9.10;;
73670;SDS011;61968;48.178;11.566;2024-03-02T14:56:41;13.85;;;8.25;;
73670;SDS011;61968;48.178;11.566;2024-03-02T14:59:07;19.27;;;9.65;;
73670;SDS011;61968;48.178;11.566;2024-03-02T15:01:35;16.35;;;8.02;;
73670;SDS011;61968;48.178;11.566;2024-03-02T15:04:03;15.75;;;8.10;;
73670;SDS011;61968;48.178;11.566;2024-03-02T15:06:30;18.98;;;9.65;;
73670;SDS011;61968;48.178;11.566;2024-03-02T15:08:56;15.35;;;9.07;;
73670;SDS011;61968;48.178;11.566;2024-03-02T15:11:23;19.58;;;9.82;;
73670;SDS011;61968;48.178;11.566;2024-03-02T15:13:50;20.55;;;9.50;;
73670;SDS011;61968;48.178;11.566;2024-03-02T15:16:16;19.13;;;9.02;;
73670;SDS011;61968;48.178;11.566;2024-03-02T15:18:43;13.25;;;9.10;;
73670;SDS011;61968;48.178;11.566;2024-03-02T15:21:12;16.70;;;9.20;;
73670;SDS011;61968;48.178;11.566;2024-03-02T15:23:38;14.93;;;8.38;;
73670;SDS011;61968;48.178;11.566;2024-03-02T15:26:05;20.13;;;10.13;;
73670;SDS011;61968;48.178;11.566;2024-03-02T15:28:32;19.90;;;8.77;;
73670;SDS011;61968;48.178;11.566;2024-03-02T15:30:58;16.25;;;8.82;;
73670;SDS011;61968;48.178;11.566;2024-03-02T15:33:25;13.82;;;8.40;;
73670;SDS011;61968;48.178;11.566;2024-03-02T15:35:57;15.65;;;9.57;;
73670;SDS011;61968;48.178;11.566;2024-03-02T15:38:25;19.67;;;8.98;;
73670;SDS011;61968;48.178;11.566;2024-03-02T15:40:52;18.02;;;8.23;;
73670;SDS011;61968;48.178;11.566;2024-03-02T15:43:18;17.38;;;10.30;;
73670;SDS011;61968;48.178;11.566;2024-03-02T15:45:45;16.23;;;9.82;;
73670;SDS011;61968;48.178;11.566;2024-03-02T15:48:11;21.30;;;10.45;;
73670;SDS011;61968;48.178;11.566;2024-03-02T15:50:38;17.23;;;9.35;;
73670;SDS011;61968;48.178;11.566;2024-03-02T15:53:04;22.52;;;9.48;;
73670;SDS011;61968;48.178;11.566;2024-03-02T15:55:33;17.92;;;8.40;;
73670;SDS011;61968;48.178;11.566;2024-03-02T15:58:00;19.60;;;9.65;;
73670;SDS011;61968;48.178;11.566;2024-03-02T16:00:28;22.83;;;10.75;;
73670;SDS011;61968;48.178;11.566;2024-03-02T16:02:55;18.90;;;9.88;;
73670;SDS011;61968;48.178;11.566;2024-03-02T16:05:22;14.95;;;8.25;;
73670;SDS011;61968;48.178;11.566;2024-03-02T16:07:48;18.30;;;9.90;;
73670;SDS011;61968;48.178;11.566;2024-03-02T16:10:15;18.20;;;9.82;;
73670;SDS011;61968;48.178;11.566;2024-03-02T16:12:43;19.25;;;9.63;;
73670;SDS011;61968;48.178;11.566;2024-03-02T16:15:09;20.80;;;11.15;;
73670;SDS011;61968;48.178;11.566;2024-03-02T16:17:36;20.52;;;9.90;;
73670;SDS011;61968;48.178;11.566;2024-03-02T16:20:03;21.73;;;10.63;;
73670;SDS011;61968;48.178;11.566;2024-03-02T16:22:31;20.08;;;10.40;;
73670;SDS011;61968;48.178;11.566;2024-03-02T16:24:57;16.70;;;9.75;;
73670;SDS011;61968;48.178;11.566;2024-03-02T16:27:24;20.23;;;9.98;;
73670;SDS011;61968;48.178;11.566;2024-03-02T16:29:54;24.80;;;10.20;;
73670;SDS011;61968;48.178;11.566;2024-03-02T16:32:23;24.10;;;12.48;;
73670;SDS011;61968;48.178;11.566;2024-03-02T16:34:50;21.33;;;10.25;;
73670;SDS011;61968;48.178;11.566;2024-03-02T16:37:17;20.83;;;10.32;;
73670;SDS011;61968;48.178;11.566;2024-03-02T16:39:44;17.13;;;9.50;;
73670;SDS011;61968;48.178;11.566;2024-03-02T16:42:11;18.75;;;8.68;;